Wetterstation Vordersexau
Wetterdaten: Woche 16.01.12 - 22.01.12 (KW3)
Datum Zeit Temp. A. Feuchte A. Luftdruck Regen Wind Richtung Taupunkt Windchill Windben
16.01.2012 00:00 -4,1 C 85 % 1019,9 hPa 0,0 l/m 0,0 km/h NO -6,2 C -4,1 C 0,0 km/h
16.01.2012 01:00 -4,7 C 83 % 1019,8 hPa 0,0 l/m 0,0 km/h NW -7,1 C -4,7 C 0,0 km/h
16.01.2012 02:00 -5,5 C 84 % 1019,7 hPa 0,0 l/m 0,0 km/h S -7,8 C -5,5 C 0,0 km/h
16.01.2012 03:00 -5,8 C 85 % 1019,8 hPa 0,0 l/m 0,0 km/h SO -7,9 C -5,8 C 0,0 km/h
16.01.2012 04:00 -6,2 C 86 % 1020,1 hPa 0,0 l/m 0,0 km/h O-SO -8,1 C -6,2 C 0,0 km/h
16.01.2012 05:00 -6,2 C 86 % 1020,6 hPa 0,0 l/m 0,0 km/h S-SO -8,1 C -6,2 C 0,0 km/h
16.01.2012 06:00 -6,6 C 86 % 1020,6 hPa 0,0 l/m 0,0 km/h SO -8,5 C -6,6 C 0,0 km/h
16.01.2012 07:00 -6,8 C 86 % 1021,0 hPa 0,0 l/m 0,0 km/h O-NO -8,7 C -6,8 C 0,0 km/h
16.01.2012 08:00 -6,4 C 87 % 1021,5 hPa 0,0 l/m 0,0 km/h SO -8,2 C -6,4 C 0,0 km/h
16.01.2012 09:00 -1,1 C 87 % 1021,7 hPa 0,0 l/m 0,0 km/h W -3,0 C -1,1 C 0,0 km/h
16.01.2012 10:00 3,6 C 71 % 1021,8 hPa 0,0 l/m 0,0 km/h W-NW -1,2 C 3,6 C 0,0 km/h
16.01.2012 11:00 3,8 C 68 % 1021,9 hPa 0,0 l/m 0,0 km/h W -1,6 C 3,8 C 0,0 km/h
16.01.2012 12:00 4,4 C 66 % 1021,6 hPa 0,0 l/m 0,0 km/h W -1,4 C 4,4 C 0,0 km/h
16.01.2012 13:00 5,4 C 63 % 1021,0 hPa 0,0 l/m 0,0 km/h SW -1,1 C 5,4 C 0,0 km/h
16.01.2012 14:00 6,6 C 61 % 1020,9 hPa 0,0 l/m 0,0 km/h W-NW -0,4 C 6,6 C 0,0 km/h
16.01.2012 15:00 8,0 C 54 % 1021,0 hPa 0,0 l/m 0,0 km/h NW -0,7 C 8,0 C 0,0 km/h
16.01.2012 16:00 6,1 C 57 % 1021,3 hPa 0,0 l/m 0,0 km/h N-NW -1,8 C 6,1 C 0,0 km/h
16.01.2012 17:00 -0,7 C 73 % 1022,2 hPa 0,0 l/m 0,0 km/h O-NO -4,9 C -0,7 C 0,0 km/h
16.01.2012 18:00 -2,6 C 80 % 1022,4 hPa 0,0 l/m 0,0 km/h SO -5,6 C -2,6 C 0,0 km/h
16.01.2012 19:00 -3,6 C 83 % 1023,3 hPa 0,0 l/m 0,0 km/h O-SO -6,1 C -3,6 C 0,0 km/h
16.01.2012 20:00 -4,2 C 85 % 1024,2 hPa 0,0 l/m 0,0 km/h SO -6,3 C -4,2 C 0,0 km/h
16.01.2012 21:00 -4,5 C 86 % 1024,5 hPa 0,0 l/m 0,0 km/h SO -6,5 C -4,5 C 0,0 km/h
16.01.2012 22:00 -4,8 C 86 % 1024,9 hPa 0,0 l/m 0,0 km/h SO -6,8 C -4,8 C 0,0 km/h
16.01.2012 23:00 -5,5 C 86 % 1025,1 hPa 0,0 l/m 0,0 km/h O -7,5 C -5,5 C 0,0 km/h
17.01.2012 00:00 -5,9 C 86 % 1025,5 hPa 0,0 l/m 0,0 km/h O -7,9 C -5,9 C 0,0 km/h
17.01.2012 01:00 -5,8 C 86 % 1025,7 hPa 0,0 l/m 0,0 km/h O-SO -7,8 C -5,8 C 0,0 km/h
17.01.2012 02:00 -6,5 C 86 % 1025,7 hPa 0,0 l/m 0,0 km/h S-SO -8,4 C -6,5 C 0,0 km/h
17.01.2012 03:00 -6,6 C 86 % 1026,1 hPa 0,0 l/m 0,0 km/h O-NO -8,5 C -6,6 C 0,0 km/h
17.01.2012 04:00 -6,6 C 87 % 1026,4 hPa 0,0 l/m 0,0 km/h O-NO -8,4 C -6,6 C 0,0 km/h
17.01.2012 05:00 -7,1 C 87 % 1026,7 hPa 0,0 l/m 0,0 km/h O-NO -8,9 C -7,1 C 0,0 km/h
17.01.2012 06:00 -7,3 C 87 % 1026,9 hPa 0,0 l/m 0,0 km/h SO -9,1 C -7,3 C 0,0 km/h
17.01.2012 07:00 -7,0 C 87 % 1027,3 hPa 0,0 l/m 0,0 km/h SO -8,8 C -7,0 C 0,0 km/h
17.01.2012 08:00 -7,1 C 87 % 1027,5 hPa 0,0 l/m 0,0 km/h SO -8,9 C -7,1 C 0,0 km/h
17.01.2012 09:00 -2,8 C 87 % 1028,0 hPa 0,0 l/m 0,0 km/h N-NO -4,7 C -2,8 C 0,0 km/h
17.01.2012 10:00 1,9 C 81 % 1028,5 hPa 0,0 l/m 0,0 km/h S-SO -1,0 C 1,9 C 0,0 km/h
17.01.2012 11:00 4,5 C 72 % 1028,3 hPa 0,0 l/m 0,0 km/h N -0,1 C 4,5 C 0,0 km/h
17.01.2012 12:00 6,2 C 59 % 1027,9 hPa 0,0 l/m 0,0 km/h N-NO -1,2 C 6,2 C 0,0 km/h
17.01.2012 13:00 6,4 C 56 % 1027,5 hPa 0,0 l/m 0,0 km/h W -1,7 C 6,4 C 0,0 km/h
17.01.2012 14:00 6,4 C 55 % 1027,5 hPa 0,0 l/m 0,0 km/h W -2,0 C 6,4 C 0,0 km/h
17.01.2012 15:00 7,9 C 49 % 1027,5 hPa 0,0 l/m 0,0 km/h W -2,1 C 7,9 C 0,0 km/h
17.01.2012 16:00 5,7 C 56 % 1027,9 hPa 0,0 l/m 0,0 km/h SO -2,4 C 5,7 C 0,0 km/h
17.01.2012 17:00 -0,4 C 69 % 1028,2 hPa 0,0 l/m 0,0 km/h SO -5,4 C -0,4 C 0,0 km/h
17.01.2012 18:00 -1,9 C 77 % 1028,4 hPa 0,0 l/m 0,0 km/h S-SO -5,4 C -1,9 C 0,0 km/h
17.01.2012 19:00 -2,5 C 80 % 1028,7 hPa 0,0 l/m 0,0 km/h SO -5,5 C -2,5 C 0,0 km/h
17.01.2012 20:00 -3,6 C 82 % 1028,7 hPa 0,0 l/m 0,0 km/h SO -6,2 C -3,6 C 0,0 km/h
17.01.2012 21:00 -3,8 C 83 % 1028,8 hPa 0,0 l/m 0,0 km/h SO -6,3 C -3,8 C 0,0 km/h
17.01.2012 22:00 -4,2 C 85 % 1029,0 hPa 0,0 l/m 0,0 km/h SO -6,3 C -4,2 C 0,0 km/h
17.01.2012 23:00 -4,4 C 85 % 1029,8 hPa 0,0 l/m 0,0 km/h O-SO -6,5 C -4,4 C 0,0 km/h
18.01.2012 00:00 -4,1 C 86 % 1029,3 hPa 0,0 l/m 0,0 km/h O-SO -6,1 C -4,1 C 0,0 km/h
18.01.2012 01:00 -4,6 C 86 % 1029,3 hPa 0,0 l/m 0,0 km/h O-SO -6,6 C -4,6 C 0,0 km/h
18.01.2012 02:00 -5,8 C 86 % 1029,6 hPa 0,0 l/m 0,0 km/h O -7,8 C -5,8 C 0,0 km/h
18.01.2012 03:00 -5,5 C 86 % 1029,2 hPa 0,0 l/m 0,0 km/h O-SO -7,5 C -5,5 C 0,0 km/h
18.01.2012 04:00 -5,9 C 87 % 1029,4 hPa 0,0 l/m 0,0 km/h SO -7,7 C -5,9 C 0,0 km/h
18.01.2012 05:00 -6,1 C 87 % 1029,9 hPa 0,0 l/m 0,0 km/h O-SO -7,9 C -6,1 C 0,0 km/h
18.01.2012 06:00 -5,8 C 87 % 1029,9 hPa 0,0 l/m 0,0 km/h O-SO -7,6 C -5,8 C 0,0 km/h
18.01.2012 07:00 -6,1 C 87 % 1030,3 hPa 0,0 l/m 0,0 km/h O-SO -7,9 C -6,1 C 0,0 km/h
18.01.2012 08:00 -6,1 C 87 % 1030,3 hPa 0,0 l/m 0,0 km/h S-SO -7,9 C -6,1 C 0,0 km/h
18.01.2012 09:00 0,4 C 87 % 1030,1 hPa 0,0 l/m 0,0 km/h W -1,5 C 0,4 C 0,0 km/h
18.01.2012 10:00 2,9 C 75 % 1030,1 hPa 0,0 l/m 0,0 km/h W -1,1 C 2,9 C 0,0 km/h
18.01.2012 11:00 5,5 C 68 % 1030,3 hPa 0,0 l/m 0,0 km/h W-SW 0,1 C 5,5 C 0,0 km/h
18.01.2012 12:00 7,3 C 59 % 1029,6 hPa 0,0 l/m 0,0 km/h NW -0,2 C 7,3 C 0,0 km/h
18.01.2012 13:00 6,4 C 60 % 1029,3 hPa 0,0 l/m 0,0 km/h NW -0,8 C 6,4 C 0,0 km/h
18.01.2012 14:00 7,6 C 56 % 1028,9 hPa 0,0 l/m 1,3 km/h W-NW -0,6 C 7,6 C 0,7 km/h
18.01.2012 15:00 7,9 C 56 % 1029,2 hPa 0,0 l/m 0,0 km/h S-SO -0,3 C 7,9 C 0,0 km/h
18.01.2012 16:00 4,0 C 62 % 1029,4 hPa 0,0 l/m 0,0 km/h SO -2,6 C 4,0 C 0,0 km/h
18.01.2012 17:00 0,1 C 75 % 1029,5 hPa 0,0 l/m 0,0 km/h S-SO -3,8 C 0,1 C 0,0 km/h
18.01.2012 18:00 -0,5 C 80 % 1029,2 hPa 0,0 l/m 0,0 km/h SO -3,5 C -0,5 C 0,0 km/h
18.01.2012 19:00 -1,1 C 82 % 1029,0 hPa 0,0 l/m 0,0 km/h O-SO -3,8 C -1,1 C 0,0 km/h
18.01.2012 20:00 -1,1 C 83 % 1028,9 hPa 0,0 l/m 0,0 km/h S-SO -3,6 C -1,1 C 0,0 km/h
18.01.2012 21:00 -0,6 C 82 % 1029,0 hPa 0,0 l/m 1,3 km/h O -3,3 C -0,6 C 0,7 km/h
18.01.2012 22:00 -0,4 C 83 % 1028,7 hPa 0,0 l/m 0,0 km/h W -2,9 C -0,4 C 0,0 km/h
18.01.2012 23:00 3,4 C 79 % 1028,5 hPa 0,0 l/m 7,1 km/h W-NW 0,1 C 2,7 C 4,0 km/h
19.01.2012 00:00 3,3 C 79 % 1028,5 hPa 0,0 l/m 20,1 km/h W 0,0 C -5,4 C 11,2 km/h
19.01.2012 01:00 4,7 C 74 % 1028,3 hPa 0,0 l/m 31,1 km/h W 0,5 C -7,1 C 17,3 km/h
19.01.2012 02:00 5,0 C 72 % 1027,7 hPa 0,0 l/m 22,7 km/h W 0,4 C -4,2 C 12,6 km/h
19.01.2012 03:00 5,4 C 74 % 1027,3 hPa 0,0 l/m 13,0 km/h W-NW 1,1 C 0,6 C 7,2 km/h
19.01.2012 04:00 4,9 C 74 % 1026,9 hPa 0,0 l/m 25,3 km/h W 0,7 C -5,2 C 14,0 km/h
19.01.2012 05:00 5,4 C 78 % 1026,3 hPa 0,0 l/m 39,5 km/h W-NW 1,9 C -7,8 C 22,0 km/h
19.01.2012 06:00 6,4 C 81 % 1025,7 hPa 0,0 l/m 25,3 km/h W-NW 3,4 C -3,1 C 14,0 km/h
19.01.2012 07:00 6,6 C 83 % 1025,5 hPa 0,0 l/m 22,7 km/h W 3,9 C -2,1 C 12,6 km/h
19.01.2012 08:00 6,1 C 84 % 1025,4 hPa 0,0 l/m 30,5 km/h W-NW 3,6 C -5,0 C 16,9 km/h
19.01.2012 09:00 6,3 C 85 % 1025,2 hPa 0,0 l/m 35,0 km/h W 4,0 C -5,7 C 19,4 km/h
19.01.2012 10:00 6,9 C 84 % 1024,9 hPa 0,0 l/m 35,6 km/h W-SW 4,4 C -4,9 C 19,8 km/h
19.01.2012 11:00 7,5 C 83 % 1024,6 hPa 0,0 l/m 21,4 km/h W 4,8 C -0,4 C 11,9 km/h
19.01.2012 12:00 7,9 C 82 % 1023,6 hPa 0,0 l/m 27,2 km/h W 5,0 C -1,6 C 15,1 km/h
19.01.2012 13:00 7,9 C 83 % 1022,7 hPa 0,0 l/m 8,4 km/h W-SW 5,2 C 6,4 C 4,7 km/h
19.01.2012 14:00 8,3 C 83 % 1022,0 hPa 0,0 l/m 22,0 km/h W-NW 5,6 C 0,4 C 12,2 km/h
19.01.2012 15:00 8,8 C 83 % 1021,5 hPa 0,0 l/m 24,0 km/h SW 6,1 C 0,5 C 13,3 km/h
19.01.2012 16:00 8,8 C 84 % 1021,2 hPa 0,0 l/m 29,2 km/h W-SW 6,2 C -0,8 C 16,2 km/h
19.01.2012 17:00 8,8 C 85 % 1021,0 hPa 0,0 l/m 14,9 km/h W 6,4 C 3,7 C 8,3 km/h
19.01.2012 18:00 9,0 C 84 % 1020,1 hPa 0,0 l/m 29,2 km/h W-NW 6,4 C -0,6 C 16,2 km/h
19.01.2012 19:00 8,3 C 86 % 1019,7 hPa 0,0 l/m 30,5 km/h W 6,1 C -1,8 C 16,9 km/h
19.01.2012 20:00 8,5 C 86 % 1019,1 hPa 0,4 l/m 22,7 km/h W-NW 6,3 C 0,5 C 12,6 km/h
19.01.2012 21:00 8,2 C 85 % 1018,5 hPa 0,7 l/m 32,4 km/h W-NW 5,8 C -2,4 C 18,0 km/h
19.01.2012 22:00 8,7 C 86 % 1017,9 hPa 0,0 l/m 25,3 km/h W 6,5 C -0,0 C 14,0 km/h
19.01.2012 23:00 8,9 C 85 % 1017,5 hPa 0,0 l/m 13,0 km/h W 6,5 C 4,7 C 7,2 km/h
20.01.2012 00:00 9,1 C 84 % 1017,0 hPa 0,0 l/m 21,4 km/h W 6,5 C 1,7 C 11,9 km/h
20.01.2012 01:00 8,1 C 85 % 1016,9 hPa 0,4 l/m 31,1 km/h W-NW 5,7 C -2,3 C 17,3 km/h
20.01.2012 02:00 8,1 C 86 % 1016,5 hPa 0,7 l/m 11,0 km/h W 5,9 C 4,9 C 6,1 km/h
20.01.2012 03:00 8,0 C 85 % 1016,0 hPa 0,0 l/m 20,7 km/h N 5,6 C 0,5 C 11,5 km/h
20.01.2012 04:00 7,6 C 86 % 1016,1 hPa 0,0 l/m 0,0 km/h N 5,4 C 7,6 C 0,0 km/h
20.01.2012 05:00 7,1 C 75 % 1016,2 hPa 0,0 l/m 20,1 km/h N-NW 3,0 C -0,5 C 11,2 km/h
20.01.2012 06:00 7,3 C 73 % 1016,7 hPa 0,0 l/m 24,0 km/h NO 2,8 C -1,5 C 13,3 km/h
20.01.2012 07:00 4,6 C 85 % 1017,2 hPa 0,7 l/m 33,0 km/h N-NW 2,3 C -7,7 C 18,4 km/h
20.01.2012 08:00 5,3 C 79 % 1018,0 hPa 0,0 l/m 22,0 km/h W-NW 2,0 C -3,5 C 12,2 km/h
20.01.2012 09:00 4,9 C 81 % 1018,2 hPa 0,0 l/m 16,2 km/h S-SW 1,9 C -1,6 C 9,0 km/h
20.01.2012 10:00 2,6 C 86 % 1020,0 hPa 1,1 l/m 2,6 km/h W 0,5 C 2,6 C 1,4 km/h
20.01.2012 11:00 3,5 C 86 % 1020,5 hPa 0,4 l/m 6,5 km/h SW 1,4 C 3,4 C 3,6 km/h
20.01.2012 12:00 4,6 C 85 % 1020,0 hPa 0,0 l/m 5,8 km/h W-SW 2,3 C 4,6 C 3,2 km/h
20.01.2012 13:00 5,5 C 80 % 1019,4 hPa 0,0 l/m 14,9 km/h W 2,3 C -0,3 C 8,3 km/h
20.01.2012 14:00 5,2 C 80 % 1018,5 hPa 0,0 l/m 1,3 km/h N-NW 2,0 C 5,2 C 0,7 km/h
20.01.2012 15:00 5,0 C 79 % 1017,8 hPa 0,0 l/m 14,9 km/h W 1,7 C -0,9 C 8,3 km/h
20.01.2012 16:00 4,9 C 82 % 1016,4 hPa 0,0 l/m 18,8 km/h W 2,1 C -2,8 C 10,4 km/h
20.01.2012 17:00 5,0 C 83 % 1015,6 hPa 0,0 l/m 27,9 km/h W 2,4 C -5,8 C 15,5 km/h
20.01.2012 18:00 4,4 C 86 % 1015,6 hPa 0,0 l/m 35,0 km/h NW 2,3 C -8,4 C 19,4 km/h
20.01.2012 19:00 4,1 C 86 % 1015,5 hPa 0,0 l/m 21,4 km/h W 2,0 C -4,9 C 11,9 km/h
20.01.2012 20:00 4,1 C 86 % 1015,5 hPa 0,0 l/m 16,8 km/h W-NW 2,0 C -2,9 C 9,4 km/h
20.01.2012 21:00 4,1 C 86 % 1015,1 hPa 0,0 l/m 22,7 km/h N 2,0 C -5,4 C 12,6 km/h
20.01.2012 22:00 4,3 C 86 % 1016,0 hPa 0,7 l/m 4,5 km/h N-NW 2,2 C 4,3 C 2,5 km/h
20.01.2012 23:00 4,5 C 84 % 1017,2 hPa 1,8 l/m 11,7 km/h W-NW 2,0 C 0,4 C 6,5 km/h
21.01.2012 00:00 4,1 C 84 % 1017,8 hPa 0,7 l/m 0,0 km/h O-NO 1,6 C 4,1 C 0,0 km/h
21.01.2012 01:00 3,9 C 84 % 1018,1 hPa 0,4 l/m 0,0 km/h O 1,4 C 3,9 C 0,0 km/h
21.01.2012 02:00 3,4 C 86 % 1018,4 hPa 0,0 l/m 0,0 km/h S-SO 1,3 C 3,4 C 0,0 km/h
21.01.2012 03:00 3,3 C 85 % 1018,3 hPa 0,0 l/m 0,0 km/h S 1,0 C 3,3 C 0,0 km/h
21.01.2012 04:00 2,9 C 84 % 1017,5 hPa 0,4 l/m 0,0 km/h S-SO 0,5 C 2,9 C 0,0 km/h
21.01.2012 05:00 2,9 C 84 % 1016,6 hPa 0,4 l/m 0,0 km/h SO 0,5 C 2,9 C 0,0 km/h
21.01.2012 06:00 3,0 C 83 % 1016,2 hPa 0,7 l/m 0,0 km/h O 0,4 C 3,0 C 0,0 km/h
21.01.2012 07:00 3,4 C 83 % 1015,8 hPa 0,4 l/m 1,9 km/h W-NW 0,8 C 3,4 C 1,1 km/h
21.01.2012 08:00 5,9 C 80 % 1016,1 hPa 0,4 l/m 20,1 km/h W 2,7 C -2,0 C 11,2 km/h
21.01.2012 09:00 6,3 C 87 % 1016,0 hPa 0,0 l/m 21,4 km/h W 4,3 C -2,0 C 11,9 km/h
21.01.2012 10:00 6,5 C 87 % 1015,8 hPa 0,0 l/m 19,4 km/h NW 4,5 C -1,0 C 10,8 km/h
21.01.2012 11:00 6,6 C 87 % 1015,4 hPa 0,0 l/m 27,2 km/h W 4,6 C -3,4 C 15,1 km/h
21.01.2012 12:00 7,4 C 84 % 1014,7 hPa 0,0 l/m 47,3 km/h W 4,9 C -6,0 C 26,3 km/h
21.01.2012 13:00 8,1 C 83 % 1014,0 hPa 0,0 l/m 57,0 km/h W-SW 5,4 C -5,9 C 31,7 km/h
21.01.2012 14:00 8,3 C 84 % 1013,2 hPa 0,0 l/m 21,4 km/h W-NW 5,8 C 0,6 C 11,9 km/h
21.01.2012 15:00 8,7 C 84 % 1013,2 hPa 0,0 l/m 31,8 km/h SW 6,2 C -1,6 C 17,6 km/h
21.01.2012 16:00 8,9 C 83 % 1012,2 hPa 0,0 l/m 34,3 km/h W-NW 6,2 C -1,8 C 19,1 km/h
21.01.2012 17:00 9,1 C 84 % 1011,9 hPa 0,0 l/m 33,7 km/h W-NW 6,5 C -1,4 C 18,7 km/h
21.01.2012 18:00 9,3 C 84 % 1011,3 hPa 0,0 l/m 37,6 km/h W-NW 6,7 C -1,8 C 20,9 km/h
21.01.2012 19:00 9,4 C 85 % 1011,2 hPa 0,0 l/m 56,4 km/h W-SW 7,0 C -3,8 C 31,3 km/h
21.01.2012 20:00 9,6 C 85 % 1010,6 hPa 0,0 l/m 30,5 km/h W-NW 7,2 C -0,0 C 16,9 km/h
21.01.2012 21:00 9,1 C 86 % 1010,2 hPa 0,0 l/m 29,2 km/h W-NW 6,9 C -0,4 C 16,2 km/h
21.01.2012 22:00 9,4 C 86 % 1009,8 hPa 0,0 l/m 29,2 km/h W-SW 7,2 C -0,0 C 16,2 km/h
21.01.2012 23:00 9,3 C 86 % 1009,9 hPa 0,0 l/m 24,6 km/h W-NW 7,1 C 1,0 C 13,7 km/h
22.01.2012 00:00 8,6 C 85 % 1011,3 hPa 1,1 l/m 22,7 km/h W-NW 6,2 C 0,6 C 12,6 km/h
22.01.2012 01:00 8,4 C 86 % 1011,3 hPa 0,4 l/m 19,4 km/h N-NO 6,2 C 1,4 C 10,8 km/h
22.01.2012 02:00 7,4 C 85 % 1013,1 hPa 1,1 l/m 0,0 km/h N-NW 5,0 C 7,4 C 0,0 km/h
22.01.2012 03:00 7,2 C 85 % 1014,2 hPa 0,0 l/m 4,5 km/h W 4,9 C 7,2 C 2,5 km/h
22.01.2012 04:00 5,9 C 85 % 1014,3 hPa 0,0 l/m 0,0 km/h O-NO 3,6 C 5,9 C 0,0 km/h
22.01.2012 05:00 5,6 C 85 % 1014,3 hPa 0,0 l/m 0,0 km/h W 3,3 C 5,6 C 0,0 km/h
22.01.2012 06:00 5,0 C 86 % 1014,0 hPa 0,0 l/m 0,0 km/h N-NW 2,9 C 5,0 C 0,0 km/h
22.01.2012 07:00 5,5 C 86 % 1014,1 hPa 0,0 l/m 0,0 km/h W 3,3 C 5,5 C 0,0 km/h
22.01.2012 08:00 5,3 C 85 % 1014,8 hPa 0,0 l/m 0,0 km/h N-NW 3,0 C 5,3 C 0,0 km/h
22.01.2012 09:00 5,8 C 85 % 1014,8 hPa 0,0 l/m 9,7 km/h W-NW 3,5 C 3,2 C 5,4 km/h
22.01.2012 10:00 6,5 C 83 % 1014,6 hPa 0,0 l/m 16,2 km/h W 3,8 C 0,3 C 9,0 km/h
22.01.2012 11:00 7,3 C 81 % 1015,2 hPa 0,0 l/m 20,1 km/h W 4,3 C -0,2 C 11,2 km/h
22.01.2012 12:00 8,9 C 77 % 1014,1 hPa 0,0 l/m 32,4 km/h NW 5,1 C -1,4 C 18,0 km/h
22.01.2012 13:00 7,9 C 78 % 1013,6 hPa 0,0 l/m 24,0 km/h W-NW 4,3 C -0,7 C 13,3 km/h
22.01.2012 14:00 7,4 C 78 % 1013,3 hPa 0,0 l/m 35,6 km/h W-NW 3,8 C -4,2 C 19,8 km/h
22.01.2012 15:00 7,3 C 79 % 1013,2 hPa 0,0 l/m 36,9 km/h W-NW 3,9 C -4,6 C 20,5 km/h
22.01.2012 16:00 6,5 C 85 % 1014,0 hPa 0,0 l/m 19,4 km/h W-NW 4,2 C -1,0 C 10,8 km/h
22.01.2012 17:00 6,5 C 85 % 1014,0 hPa 0,0 l/m 35,6 km/h NW 4,2 C -5,5 C 19,8 km/h
22.01.2012 18:00 6,9 C 83 % 1013,9 hPa 0,0 l/m 41,5 km/h W-NW 4,2 C -5,9 C 23,0 km/h
22.01.2012 19:00 6,6 C 85 % 1014,3 hPa 0,0 l/m 36,3 km/h W-NW 4,3 C -5,5 C 20,2 km/h
22.01.2012 20:00 6,2 C 86 % 1014,8 hPa 0,4 l/m 24,0 km/h W 4,0 C -3,0 C 13,3 km/h
22.01.2012 21:00 6,1 C 86 % 1015,3 hPa 0,0 l/m 9,7 km/h W-NW 3,9 C 3,5 C 5,4 km/h
22.01.2012 22:00 6,4 C 87 % 1015,6 hPa 0,0 l/m 15,6 km/h W 4,4 C 0,5 C 8,6 km/h
22.01.2012 23:00 5,9 C 86 % 1016,2 hPa 0,7 l/m 1,9 km/h W-NW 3,7 C 5,9 C 1,1 km/h
Min-Datum _ 17.01.12 17.01.12 21.01.12 - 16.01.12 - 17.01.12 20.01.12 16.01.12
_ Min-Zeit 06:30 15:30 22:30 - 00:30 - 06:30 18:30 00:30
Minimum _ -7,3 C 49 % 1009,8 hPa - 0,0 km/h - -9,1 C -8,4 C 0,0 km/h
Max-Datum _ 21.01.12 16.01.12 18.01.12 20.01.12 21.01.12 - 21.01.12 16.01.12 21.01.12
_ Max-Zeit 20:30 08:30 07:30 23:30 13:30 - 20:30 15:30 13:30
Maximum _ 9,6 C 87 % 1030,3 hPa 1,8 l/m 57,0 km/h
W-SW
- 7,2 C 8,0 C 31,7 km/h
W-SW
Durchschnitt _ 3,1 C 81 % 1021,1 hPa #13,5 l/m 11,6 km/h W 0,1 C -0,8 C 6,4 km/h
www.sexauwetter.de